createdAt,value
2017-05-15T00:00:26.283Z,20.5
2017-05-15T00:01:34.369Z,20.4
2017-05-15T00:02:42.457Z,20.5
2017-05-15T00:03:50.549Z,20.5
2017-05-15T00:04:58.628Z,20.5
2017-05-15T00:06:06.714Z,20.5
2017-05-15T00:07:14.804Z,20.5
2017-05-15T00:08:22.885Z,20.3
2017-05-15T00:09:30.970Z,20.5
2017-05-15T00:10:39.061Z,20.6
2017-05-15T00:11:47.140Z,20.4
2017-05-15T00:12:55.237Z,20.4
2017-05-15T00:14:03.321Z,20.5
2017-05-15T00:15:11.405Z,20.4
2017-05-15T00:16:19.488Z,20.5
2017-05-15T00:17:27.575Z,20.3
2017-05-15T00:18:35.665Z,20.4
2017-05-15T00:19:43.744Z,20.4
2017-05-15T00:20:51.835Z,20.4
2017-05-15T00:21:59.920Z,20.4
2017-05-15T00:23:08.009Z,20.3
2017-05-15T00:24:16.094Z,20.3
2017-05-15T00:25:24.178Z,20.4
2017-05-15T00:26:32.261Z,20.4
2017-05-15T00:27:40.347Z,20.4
2017-05-15T00:28:48.432Z,20.3
2017-05-15T00:29:56.526Z,20.4
2017-05-15T00:31:04.604Z,20.4
2017-05-15T00:32:12.689Z,20.4
2017-05-15T00:33:20.775Z,20.4
2017-05-15T00:34:28.860Z,20.3
2017-05-15T00:35:36.946Z,20.4
2017-05-15T00:36:45.033Z,20.4
2017-05-15T00:37:53.118Z,20.4
2017-05-15T00:39:01.207Z,20.3
2017-05-15T00:40:09.287Z,20.3
2017-05-15T00:41:17.373Z,20.4
2017-05-15T00:42:25.458Z,20.2
2017-05-15T00:43:33.545Z,20.3
2017-05-15T00:44:41.632Z,20.2
2017-05-15T00:45:49.716Z,20.3
2017-05-15T00:46:57.805Z,20.3
2017-05-15T00:48:05.890Z,20.2
2017-05-15T00:49:13.978Z,20.2
2017-05-15T00:50:22.059Z,20.2
2017-05-15T00:51:30.148Z,20.2
2017-05-15T00:52:38.231Z,20.3
2017-05-15T00:53:46.317Z,20.3
2017-05-15T00:54:54.405Z,20.2
2017-05-15T00:56:02.489Z,20.2
2017-05-15T00:57:10.574Z,20.2
2017-05-15T00:58:18.663Z,20.2
2017-05-15T00:59:26.752Z,20.2
2017-05-15T01:00:34.834Z,20.2
2017-05-15T01:01:42.922Z,20.2
2017-05-15T01:02:51.007Z,20.3
2017-05-15T01:03:59.101Z,20.2
2017-05-15T01:05:07.181Z,20.3
2017-05-15T01:06:15.266Z,20.2
2017-05-15T01:07:23.365Z,20.2
2017-05-15T01:08:31.433Z,20.2
2017-05-15T01:09:39.519Z,20.2
2017-05-15T01:10:47.609Z,20.2
2017-05-15T01:11:55.692Z,20.2
2017-05-15T01:13:03.781Z,20.1
2017-05-15T01:14:11.863Z,20.2
2017-05-15T01:15:19.948Z,20.1
2017-05-15T01:16:28.038Z,20.2
2017-05-15T01:17:36.119Z,20.2
2017-05-15T01:18:44.205Z,20.2
2017-05-15T01:19:52.291Z,20.1
2017-05-15T01:21:00.375Z,20.1
2017-05-15T01:22:08.464Z,20.1
2017-05-15T01:23:16.548Z,20.0
2017-05-15T01:24:24.636Z,20.1
2017-05-15T01:25:32.718Z,20.0
2017-05-15T01:26:40.828Z,20.1
2017-05-15T01:27:48.889Z,20.1
2017-05-15T01:28:56.972Z,20.1
2017-05-15T01:30:05.059Z,20.1
2017-05-15T01:31:13.148Z,20.1
2017-05-15T01:32:21.230Z,20.1
2017-05-15T01:33:29.321Z,20.2
2017-05-15T01:34:37.402Z,20.0
2017-05-15T01:35:45.489Z,20.1
2017-05-15T01:36:53.575Z,20.1
2017-05-15T01:38:01.656Z,20.1
2017-05-15T01:39:09.743Z,20.0
2017-05-15T01:40:17.826Z,20.0
2017-05-15T01:41:25.914Z,20.0
2017-05-15T01:42:34.002Z,20.1
2017-05-15T01:43:42.086Z,20.0
2017-05-15T01:44:50.172Z,20.0
2017-05-15T01:45:58.256Z,20.0
2017-05-15T01:47:06.342Z,20.0
2017-05-15T01:48:14.427Z,20.0
2017-05-15T01:49:22.512Z,20.0
2017-05-15T01:50:30.598Z,20.1
2017-05-15T01:51:38.683Z,20.1
2017-05-15T01:52:46.767Z,20.0
2017-05-15T01:53:54.853Z,19.9
2017-05-15T01:55:02.939Z,20.0
2017-05-15T01:56:11.026Z,20.0
2017-05-15T01:57:19.112Z,20.0
2017-05-15T01:58:27.197Z,20.0
2017-05-15T01:59:35.280Z,20.0
2017-05-15T02:00:43.373Z,20.0
2017-05-15T02:01:51.453Z,20.0
2017-05-15T02:02:59.605Z,19.9
2017-05-15T02:04:07.628Z,20.0
2017-05-15T02:05:15.711Z,20.0
2017-05-15T02:06:23.804Z,20.0
2017-05-15T02:07:31.889Z,20.0
2017-05-15T02:08:39.980Z,19.9
2017-05-15T02:09:48.062Z,19.9
2017-05-15T02:10:56.150Z,19.9
2017-05-15T02:12:04.234Z,20.0
2017-05-15T02:13:12.323Z,20.0
2017-05-15T02:14:20.411Z,20.0
2017-05-15T02:15:28.490Z,19.9
2017-05-15T02:16:36.580Z,19.9
2017-05-15T02:17:44.669Z,19.9
2017-05-15T02:18:52.747Z,19.9
2017-05-15T02:20:01.174Z,19.9
2017-05-15T02:21:08.917Z,19.9
2017-05-15T02:22:17.004Z,19.9
2017-05-15T02:23:25.092Z,19.9
2017-05-15T02:24:33.174Z,19.9
2017-05-15T02:25:41.258Z,19.9
2017-05-15T02:26:49.344Z,19.9
2017-05-15T02:27:57.440Z,19.9
2017-05-15T02:29:05.515Z,19.9
2017-05-15T02:30:13.601Z,19.9
2017-05-15T02:31:21.687Z,19.9
2017-05-15T02:32:29.784Z,19.8
2017-05-15T02:33:37.869Z,19.9
2017-05-15T02:34:45.951Z,19.9
2017-05-15T02:35:54.036Z,19.9
2017-05-15T02:37:02.215Z,19.9
2017-05-15T02:38:10.213Z,19.8
2017-05-15T02:39:18.293Z,19.8
2017-05-15T02:40:26.383Z,19.8
2017-05-15T02:41:34.469Z,19.8
2017-05-15T02:42:42.554Z,19.8
2017-05-15T02:43:50.639Z,19.8
2017-05-15T02:44:58.728Z,19.7
2017-05-15T02:46:06.809Z,19.8
2017-05-15T02:47:14.896Z,19.8
2017-05-15T02:48:22.983Z,19.7
2017-05-15T02:49:31.071Z,19.7
2017-05-15T02:50:39.154Z,19.7
2017-05-15T02:51:47.246Z,19.7
2017-05-15T02:52:55.324Z,19.7
2017-05-15T02:54:03.410Z,19.8
2017-05-15T02:55:11.496Z,19.8
2017-05-15T02:56:19.581Z,19.8
2017-05-15T02:57:27.664Z,19.7
2017-05-15T02:58:35.748Z,19.7
2017-05-15T02:59:43.836Z,19.7
2017-05-15T03:00:51.926Z,19.7
2017-05-15T03:02:00.006Z,19.7
2017-05-15T03:03:08.090Z,19.7
2017-05-15T03:04:16.175Z,19.7
2017-05-15T03:05:24.260Z,19.7
2017-05-15T03:06:32.358Z,19.7
2017-05-15T03:07:40.431Z,19.7
2017-05-15T03:08:48.519Z,19.7
2017-05-15T03:09:56.604Z,19.7
2017-05-15T03:11:04.689Z,19.7
2017-05-15T03:12:12.774Z,19.7
2017-05-15T03:13:20.859Z,19.7
2017-05-15T03:14:28.945Z,19.7
2017-05-15T03:15:37.033Z,19.7
2017-05-15T03:16:45.117Z,19.7
2017-05-15T03:17:53.206Z,19.7
2017-05-15T03:19:01.287Z,19.7
2017-05-15T03:20:09.376Z,19.7
2017-05-15T03:21:17.458Z,19.7
2017-05-15T03:22:25.544Z,19.7
2017-05-15T03:23:33.628Z,19.7
2017-05-15T03:24:41.968Z,19.7
2017-05-15T03:25:49.805Z,19.7
2017-05-15T03:26:57.885Z,19.6
2017-05-15T03:28:05.971Z,19.7
2017-05-15T03:29:14.057Z,19.6
2017-05-15T03:30:22.151Z,19.6
2017-05-15T03:31:30.226Z,19.7
2017-05-15T03:32:38.342Z,19.6
2017-05-15T03:33:46.405Z,19.7
2017-05-15T03:34:54.490Z,19.7
2017-05-15T03:36:02.568Z,19.7
2017-05-15T03:37:10.654Z,19.7
2017-05-15T03:38:18.739Z,19.7
2017-05-15T03:39:26.828Z,19.6
2017-05-15T03:40:34.911Z,19.7
2017-05-15T03:41:43.000Z,19.6
2017-05-15T03:42:51.080Z,19.6
2017-05-15T03:43:59.171Z,19.6
2017-05-15T03:45:07.257Z,19.7
2017-05-15T03:46:15.338Z,19.7
2017-05-15T03:47:23.422Z,19.7
2017-05-15T03:48:31.509Z,19.7
2017-05-15T03:49:39.594Z,19.7
2017-05-15T03:50:47.679Z,19.7
2017-05-15T03:51:55.764Z,19.6
2017-05-15T03:53:03.851Z,19.7
2017-05-15T03:54:11.934Z,19.6
2017-05-15T03:55:20.019Z,19.7
2017-05-15T03:56:28.107Z,19.7
2017-05-15T03:57:36.194Z,19.7
2017-05-15T03:58:44.302Z,19.6
2017-05-15T03:59:52.363Z,19.6
2017-05-15T04:01:00.449Z,19.7
2017-05-15T04:02:08.537Z,19.6
2017-05-15T04:03:16.619Z,19.6
2017-05-15T04:04:24.956Z,19.6
2017-05-15T04:05:32.791Z,19.6
2017-05-15T04:06:40.878Z,19.6
2017-05-15T04:07:48.966Z,19.6
2017-05-15T04:08:57.046Z,19.6
2017-05-15T04:10:05.133Z,19.6
2017-05-15T04:11:13.223Z,19.5
2017-05-15T04:12:21.305Z,19.6
2017-05-15T04:13:29.393Z,19.6
2017-05-15T04:14:37.480Z,19.5
2017-05-15T04:15:45.570Z,19.6
2017-05-15T04:16:53.648Z,19.6
2017-05-15T04:18:01.745Z,19.5
2017-05-15T04:19:09.819Z,19.5
2017-05-15T04:20:17.909Z,19.6
2017-05-15T04:21:25.990Z,19.6
2017-05-15T04:22:34.073Z,19.5
2017-05-15T04:23:42.161Z,19.5
2017-05-15T04:24:50.243Z,19.6
2017-05-15T04:25:58.334Z,19.6
2017-05-15T04:27:06.417Z,19.5
2017-05-15T04:28:14.501Z,19.5
2017-05-15T04:29:22.591Z,19.6
2017-05-15T04:30:30.675Z,19.5
2017-05-15T04:31:38.756Z,19.6
2017-05-15T04:32:46.839Z,19.6
2017-05-15T04:33:54.925Z,19.5
2017-05-15T04:35:03.015Z,19.6
2017-05-15T04:36:11.098Z,19.5
2017-05-15T04:37:19.373Z,19.6
2017-05-15T04:38:27.276Z,19.4
2017-05-15T04:39:35.361Z,19.5
2017-05-15T04:40:43.444Z,19.6
2017-05-15T04:41:51.533Z,19.6
2017-05-15T04:42:59.709Z,19.6
2017-05-15T04:44:07.704Z,19.6
2017-05-15T04:45:15.786Z,19.5
2017-05-15T04:46:23.872Z,19.6
2017-05-15T04:47:31.959Z,19.6
2017-05-15T04:48:40.047Z,19.6
2017-05-15T04:49:48.129Z,19.5
2017-05-15T04:50:56.216Z,19.5
2017-05-15T04:52:04.299Z,19.6
2017-05-15T04:53:12.385Z,19.6
2017-05-15T04:54:20.486Z,19.5
2017-05-15T04:55:28.592Z,19.6
2017-05-15T04:56:36.655Z,19.5
2017-05-15T04:57:44.731Z,19.5
2017-05-15T04:58:52.816Z,19.5
2017-05-15T05:00:00.904Z,19.6
2017-05-15T05:01:08.986Z,19.4
2017-05-15T05:02:17.074Z,19.5
2017-05-15T05:03:25.159Z,19.4
2017-05-15T05:04:33.966Z,19.5
2017-05-15T05:05:41.330Z,19.5
2017-05-15T05:06:49.418Z,19.4
2017-05-15T05:07:57.498Z,19.5
2017-05-15T05:09:05.588Z,19.5
2017-05-15T05:10:13.668Z,19.4
2017-05-15T05:11:21.760Z,19.4
2017-05-15T05:12:30.020Z,19.5
2017-05-15T05:13:37.930Z,19.4
2017-05-15T05:14:46.082Z,19.5
2017-05-15T05:15:54.099Z,19.5
2017-05-15T05:17:02.183Z,19.4
2017-05-15T05:18:10.950Z,19.5
2017-05-15T05:19:18.588Z,19.5
2017-05-15T05:20:26.441Z,19.4
2017-05-15T05:21:34.534Z,19.5
2017-05-15T05:22:42.614Z,19.4
2017-05-15T05:23:50.742Z,19.5
2017-05-15T05:24:58.785Z,19.4
2017-05-15T05:26:06.867Z,19.4
2017-05-15T05:27:14.951Z,19.4
2017-05-15T05:28:23.036Z,19.4
2017-05-15T05:29:31.126Z,19.4
2017-05-15T05:30:39.208Z,19.5
2017-05-15T05:31:47.351Z,19.4
2017-05-15T05:32:55.378Z,19.5
2017-05-15T05:34:03.465Z,19.4
2017-05-15T05:35:11.608Z,19.4
2017-05-15T05:36:19.633Z,19.4
2017-05-15T05:37:27.751Z,19.5
2017-05-15T05:38:35.806Z,19.5
2017-05-15T05:39:44.215Z,19.4
2017-05-15T05:40:51.974Z,19.4
2017-05-15T05:42:00.062Z,19.4
2017-05-15T05:43:08.145Z,19.4
2017-05-15T05:44:16.836Z,19.4
2017-05-15T05:45:24.316Z,19.4
2017-05-15T05:46:32.418Z,19.4
2017-05-15T05:47:40.483Z,19.4
2017-05-15T05:48:48.573Z,19.4
2017-05-15T05:49:56.655Z,19.5
2017-05-15T05:51:04.740Z,19.4
2017-05-15T05:52:12.827Z,19.4
2017-05-15T05:53:20.910Z,19.4
2017-05-15T05:54:28.998Z,19.4
2017-05-15T05:55:37.093Z,19.4
2017-05-15T05:56:45.217Z,19.4
2017-05-15T05:57:53.257Z,19.4
2017-05-15T05:59:01.360Z,19.3
2017-05-15T06:00:09.420Z,19.4
2017-05-15T06:01:17.718Z,19.3
2017-05-15T06:02:25.592Z,19.4
2017-05-15T06:03:33.676Z,19.5
2017-05-15T06:04:41.761Z,19.4
2017-05-15T06:05:49.855Z,19.4
2017-05-15T06:06:57.935Z,19.4
2017-05-15T06:08:06.111Z,19.4
2017-05-15T06:09:14.208Z,19.4
2017-05-15T06:10:22.326Z,19.4
2017-05-15T06:11:30.273Z,19.4
2017-05-15T06:12:38.820Z,19.4
2017-05-15T06:13:46.724Z,19.4
2017-05-15T06:14:54.563Z,19.4
2017-05-15T06:16:02.613Z,19.4
2017-05-15T06:17:11.109Z,19.4
2017-05-15T06:18:18.831Z,19.4
2017-05-15T06:19:26.871Z,19.4
2017-05-15T06:20:35.540Z,19.4
2017-05-15T06:21:43.264Z,19.3
2017-05-15T06:22:51.182Z,19.4
2017-05-15T06:23:59.673Z,19.4
2017-05-15T06:25:07.493Z,19.4
2017-05-15T06:26:15.377Z,19.4
2017-05-15T06:27:23.459Z,19.3
2017-05-15T06:28:31.587Z,19.4
2017-05-15T06:29:39.993Z,19.4
2017-05-15T06:30:48.117Z,19.4
2017-05-15T06:31:56.396Z,19.4
2017-05-15T06:33:04.371Z,19.4
2017-05-15T06:34:11.972Z,19.3
2017-05-15T06:35:20.148Z,19.3
2017-05-15T06:36:28.631Z,19.3
2017-05-15T06:37:36.223Z,19.3
2017-05-15T06:38:44.310Z,19.4
2017-05-15T06:39:52.393Z,19.4
2017-05-15T06:41:00.569Z,19.4
2017-05-15T06:42:08.565Z,19.4
2017-05-15T06:43:16.649Z,19.4
2017-05-15T06:44:24.834Z,19.4
2017-05-15T06:45:32.820Z,19.4
2017-05-15T06:46:40.908Z,19.3
2017-05-15T06:47:48.990Z,19.3
2017-05-15T06:48:57.072Z,19.4
2017-05-15T06:50:05.726Z,19.4
2017-05-15T06:51:13.245Z,19.4
2017-05-15T06:52:21.854Z,19.4
2017-05-15T06:53:29.419Z,19.4
2017-05-15T06:54:37.501Z,19.4
2017-05-15T06:55:45.584Z,19.4
2017-05-15T06:56:53.687Z,19.4
2017-05-15T06:58:01.752Z,19.4
2017-05-15T06:59:09.836Z,19.5
2017-05-15T07:00:17.926Z,19.4
2017-05-15T07:01:26.019Z,19.4
2017-05-15T07:02:34.098Z,19.4
2017-05-15T07:03:42.175Z,19.4
2017-05-15T07:04:50.267Z,19.5
2017-05-15T07:05:58.355Z,19.5
2017-05-15T07:07:06.437Z,19.5
2017-05-15T07:08:14.520Z,19.5
2017-05-15T07:09:22.609Z,19.5
2017-05-15T07:10:30.693Z,19.4
2017-05-15T07:11:38.782Z,19.5
2017-05-15T07:12:46.865Z,19.4
2017-05-15T07:13:54.957Z,19.5
2017-05-15T07:15:03.034Z,19.5
2017-05-15T07:16:11.120Z,19.5
2017-05-15T07:17:19.206Z,19.6
2017-05-15T07:18:27.290Z,19.6
2017-05-15T07:19:35.374Z,19.6
2017-05-15T07:20:43.466Z,19.6
2017-05-15T07:21:51.549Z,19.5
2017-05-15T07:22:59.632Z,19.6
2017-05-15T07:24:07.716Z,19.6
2017-05-15T07:25:15.808Z,19.6
2017-05-15T07:26:23.898Z,19.6
2017-05-15T07:27:31.983Z,19.6
2017-05-15T07:28:40.093Z,19.6
2017-05-15T07:29:48.152Z,19.6
2017-05-15T07:30:56.237Z,19.6
2017-05-15T07:32:04.322Z,19.6
2017-05-15T07:33:12.411Z,19.5
2017-05-15T07:34:20.493Z,19.5
2017-05-15T07:35:28.580Z,19.6
2017-05-15T07:36:36.666Z,19.5
2017-05-15T07:37:44.943Z,19.5
2017-05-15T07:38:52.844Z,19.5
2017-05-15T07:40:00.928Z,19.6
2017-05-15T07:41:09.010Z,19.6
2017-05-15T07:42:17.102Z,19.6
2017-05-15T07:43:25.187Z,19.6
2017-05-15T07:44:33.297Z,19.6
2017-05-15T07:45:41.357Z,19.6
2017-05-15T07:46:49.709Z,19.6
2017-05-15T07:47:57.532Z,19.7
2017-05-15T07:49:05.614Z,19.7
2017-05-15T07:50:13.705Z,19.7
2017-05-15T07:51:21.787Z,19.6
2017-05-15T07:52:29.870Z,19.7
2017-05-15T07:53:37.957Z,19.6
2017-05-15T07:54:46.054Z,19.7
2017-05-15T07:55:54.133Z,19.7
2017-05-15T07:57:02.219Z,19.7
2017-05-15T07:58:10.304Z,19.7
2017-05-15T07:59:18.390Z,19.7
2017-05-15T08:00:26.477Z,19.7
2017-05-15T08:01:34.750Z,19.7
2017-05-15T08:02:42.647Z,19.7
2017-05-15T08:03:50.738Z,19.7
2017-05-15T08:04:58.819Z,19.7
2017-05-15T08:06:06.904Z,19.7
2017-05-15T08:07:14.994Z,19.8
2017-05-15T08:08:23.088Z,19.8
2017-05-15T08:09:31.164Z,19.8
2017-05-15T08:10:39.246Z,19.8
2017-05-15T08:11:47.332Z,19.7
2017-05-15T08:12:55.419Z,19.8
2017-05-15T08:14:03.506Z,19.9
2017-05-15T08:15:11.593Z,19.8
2017-05-15T08:16:19.677Z,19.8
2017-05-15T08:17:27.766Z,19.8
2017-05-15T08:18:35.851Z,19.8
2017-05-15T08:19:43.935Z,19.9
2017-05-15T08:20:52.022Z,19.8
2017-05-15T08:22:00.112Z,19.8
2017-05-15T08:23:08.193Z,19.8
2017-05-15T08:24:16.280Z,19.9
2017-05-15T08:25:24.930Z,19.9
2017-05-15T08:26:32.483Z,19.9
2017-05-15T08:27:40.539Z,20.0
2017-05-15T08:28:48.622Z,19.9
2017-05-15T08:29:56.710Z,19.9
2017-05-15T08:31:04.797Z,19.9
2017-05-15T08:32:12.885Z,20.0
2017-05-15T08:33:20.978Z,20.0
2017-05-15T08:34:29.062Z,20.0
2017-05-15T08:35:37.145Z,20.0
2017-05-15T08:36:45.238Z,20.0
2017-05-15T08:37:53.356Z,20.0
2017-05-15T08:39:01.419Z,20.0
2017-05-15T08:40:09.493Z,20.1
2017-05-15T08:41:17.603Z,20.0
2017-05-15T08:42:25.672Z,20.0
2017-05-15T08:43:33.811Z,20.0
2017-05-15T08:44:41.841Z,20.0
2017-05-15T08:45:49.924Z,20.0
2017-05-15T08:46:58.011Z,20.0
2017-05-15T08:48:06.143Z,20.1
2017-05-15T08:49:14.186Z,20.0
2017-05-15T08:50:22.278Z,20.1
2017-05-15T08:51:30.409Z,20.0
2017-05-15T08:52:38.442Z,20.0
2017-05-15T08:53:46.530Z,20.1
2017-05-15T08:54:54.614Z,20.1
2017-05-15T08:56:02.700Z,20.0
2017-05-15T08:57:10.785Z,20.1
2017-05-15T08:58:18.872Z,20.0
2017-05-15T08:59:26.955Z,20.0
2017-05-15T09:00:35.040Z,20.1
2017-05-15T09:01:43.129Z,20.0
2017-05-15T09:02:51.211Z,20.1
2017-05-15T09:03:59.299Z,20.1
2017-05-15T09:05:07.384Z,20.1
2017-05-15T09:06:15.491Z,20.0
2017-05-15T09:07:23.567Z,20.1
2017-05-15T09:08:31.641Z,20.1
2017-05-15T09:09:39.726Z,20.1
2017-05-15T09:10:47.824Z,20.1
2017-05-15T09:11:55.918Z,20.1
2017-05-15T09:13:03.992Z,20.0
2017-05-15T09:14:12.076Z,20.1
2017-05-15T09:15:20.161Z,20.1
2017-05-15T09:16:28.249Z,20.1
2017-05-15T09:17:36.338Z,20.1
2017-05-15T09:18:44.421Z,20.2
2017-05-15T09:19:52.513Z,20.1
2017-05-15T09:21:00.593Z,20.2
2017-05-15T09:22:08.679Z,20.2
2017-05-15T09:23:16.818Z,20.1
2017-05-15T09:24:24.852Z,20.2
2017-05-15T09:25:32.936Z,20.2
2017-05-15T09:26:41.021Z,20.2
2017-05-15T09:27:49.110Z,20.2
2017-05-15T09:28:57.199Z,20.1
2017-05-15T09:30:05.284Z,20.2
2017-05-15T09:31:13.374Z,20.2
2017-05-15T09:32:21.454Z,20.2
2017-05-15T09:33:29.541Z,20.2
2017-05-15T09:34:37.625Z,20.2
2017-05-15T09:35:45.709Z,20.2
2017-05-15T09:36:53.797Z,20.2
2017-05-15T09:38:01.880Z,20.2
2017-05-15T09:39:09.970Z,20.2
2017-05-15T09:40:18.060Z,20.3
2017-05-15T09:41:26.147Z,20.3
2017-05-15T09:42:34.230Z,20.3
2017-05-15T09:43:42.314Z,20.2
2017-05-15T09:44:50.402Z,20.3
2017-05-15T09:45:58.486Z,20.3
2017-05-15T09:47:06.571Z,20.3
2017-05-15T09:48:14.667Z,20.3
2017-05-15T09:49:22.936Z,20.3
2017-05-15T09:50:30.838Z,20.2
2017-05-15T09:51:38.920Z,20.3
2017-05-15T09:52:47.010Z,20.3
2017-05-15T09:53:55.092Z,20.3
2017-05-15T09:55:03.187Z,20.3
2017-05-15T09:56:11.267Z,20.4
2017-05-15T09:57:19.355Z,20.4
2017-05-15T09:58:27.438Z,20.4
2017-05-15T09:59:35.530Z,20.3
2017-05-15T10:00:43.611Z,20.4
2017-05-15T10:01:51.700Z,20.4
2017-05-15T10:02:59.783Z,20.4
2017-05-15T10:04:07.869Z,20.4
2017-05-15T10:05:15.977Z,20.3
2017-05-15T10:06:24.038Z,20.3
2017-05-15T10:07:32.130Z,20.3
2017-05-15T10:08:40.212Z,20.4
2017-05-15T10:09:48.302Z,20.5
2017-05-15T10:10:56.387Z,20.5
2017-05-15T10:12:04.470Z,20.5
2017-05-15T10:13:12.557Z,20.4
2017-05-15T10:14:20.644Z,20.5
2017-05-15T10:15:28.732Z,20.5
2017-05-15T10:16:36.814Z,20.5
2017-05-15T10:17:45.494Z,20.4
2017-05-15T10:18:52.988Z,20.5
2017-05-15T10:20:01.079Z,20.5
2017-05-15T10:21:09.173Z,20.4
2017-05-15T10:22:17.278Z,20.5
2017-05-15T10:23:25.339Z,20.4
2017-05-15T10:24:33.427Z,20.5
2017-05-15T10:25:41.515Z,20.5
2017-05-15T10:26:49.604Z,20.4
2017-05-15T10:27:57.696Z,20.4
2017-05-15T10:29:05.777Z,20.5
2017-05-15T10:30:13.861Z,20.5
2017-05-15T10:31:22.013Z,20.5
2017-05-15T10:32:30.036Z,20.5
2017-05-15T10:33:38.122Z,20.6
2017-05-15T10:34:46.207Z,20.5
2017-05-15T10:35:54.299Z,20.5
2017-05-15T10:37:02.427Z,20.5
2017-05-15T10:38:10.474Z,20.5
2017-05-15T10:39:18.563Z,20.5
2017-05-15T10:40:26.643Z,20.6
2017-05-15T10:41:34.732Z,20.6
2017-05-15T10:42:42.815Z,20.6
2017-05-15T10:43:50.911Z,20.6
2017-05-15T10:44:58.993Z,20.6
2017-05-15T10:46:07.078Z,20.6
2017-05-15T10:47:15.164Z,20.7
2017-05-15T10:48:23.247Z,20.6
2017-05-15T10:49:31.336Z,20.6
2017-05-15T10:50:39.419Z,20.6
2017-05-15T10:51:47.503Z,20.6
2017-05-15T10:52:55.592Z,20.7
2017-05-15T10:54:03.678Z,20.7
2017-05-15T10:55:11.773Z,20.7
2017-05-15T10:56:19.850Z,20.6
2017-05-15T10:57:27.937Z,20.7
2017-05-15T10:58:36.067Z,20.6
2017-05-15T11:00:52.193Z,20.7
2017-05-15T11:02:00.282Z,20.7
2017-05-15T11:03:08.367Z,20.7
2017-05-15T11:05:24.541Z,20.7
2017-05-15T11:06:32.624Z,20.7
2017-05-15T11:07:40.712Z,20.7
2017-05-15T11:08:48.800Z,20.7
2017-05-15T11:09:56.884Z,20.7
2017-05-15T11:11:04.970Z,20.7
2017-05-15T11:13:21.144Z,20.7
2017-05-15T11:14:29.234Z,20.7
2017-05-15T11:15:37.323Z,20.7
2017-05-15T11:16:45.403Z,20.6
2017-05-15T11:17:53.489Z,20.7
2017-05-15T11:19:01.576Z,20.7
2017-05-15T11:20:09.664Z,20.7
2017-05-15T11:21:17.751Z,20.7
2017-05-15T11:22:25.835Z,20.7
2017-05-15T11:23:33.923Z,20.7
2017-05-15T11:24:42.010Z,20.7
2017-05-15T11:25:50.097Z,20.7
2017-05-15T11:26:58.180Z,20.7
2017-05-15T11:28:06.269Z,20.7
2017-05-15T11:29:14.353Z,20.7
2017-05-15T11:30:22.440Z,20.7
2017-05-15T11:31:30.554Z,20.7
2017-05-15T11:32:38.614Z,20.7
2017-05-15T11:33:46.700Z,20.7
2017-05-15T11:34:54.789Z,20.7
2017-05-15T11:36:02.880Z,20.7
2017-05-15T11:37:10.984Z,20.7
2017-05-15T11:38:19.066Z,20.7
2017-05-15T11:39:27.132Z,20.7
2017-05-15T11:40:35.218Z,20.7
2017-05-15T11:41:43.307Z,20.7
2017-05-15T11:42:51.388Z,20.7
2017-05-15T11:43:59.475Z,20.7
2017-05-15T11:45:07.563Z,20.7
2017-05-15T11:46:15.648Z,20.7
2017-05-15T11:47:23.738Z,20.6
2017-05-15T11:48:31.822Z,20.7
2017-05-15T11:49:39.915Z,20.7
2017-05-15T11:50:47.991Z,20.7
2017-05-15T11:51:56.079Z,20.7
2017-05-15T11:53:04.179Z,20.7
2017-05-15T11:54:12.257Z,20.7
2017-05-15T11:55:20.598Z,20.7
2017-05-15T11:56:28.432Z,20.7
2017-05-15T11:57:36.512Z,20.7
2017-05-15T11:58:44.600Z,20.7
2017-05-15T11:59:52.689Z,20.7
2017-05-15T12:01:00.777Z,20.8
2017-05-15T12:02:08.860Z,20.7
2017-05-15T12:03:16.951Z,20.7
2017-05-15T12:04:25.036Z,20.7
2017-05-15T12:05:33.127Z,20.7
2017-05-15T12:06:41.210Z,20.7
2017-05-15T12:07:49.368Z,20.7
2017-05-15T12:08:57.383Z,20.7
2017-05-15T12:10:05.465Z,20.7
2017-05-15T12:11:13.551Z,20.7
2017-05-15T12:12:21.718Z,20.7
2017-05-15T12:13:29.727Z,20.7
2017-05-15T12:14:37.812Z,20.7
2017-05-15T12:15:45.905Z,20.8
2017-05-15T12:16:53.986Z,20.7
2017-05-15T12:18:02.077Z,20.8
2017-05-15T12:19:10.162Z,20.9
2017-05-15T12:20:18.250Z,20.8
2017-05-15T12:21:26.337Z,20.7
2017-05-15T12:22:34.425Z,20.9
2017-05-15T12:23:42.511Z,20.7
2017-05-15T12:24:50.607Z,20.8
2017-05-15T12:25:58.685Z,20.8
2017-05-15T12:27:06.769Z,20.8
2017-05-15T12:28:14.853Z,20.8
2017-05-15T12:29:22.941Z,20.8
2017-05-15T12:30:31.026Z,20.8
2017-05-15T12:31:39.114Z,20.8
2017-05-15T12:32:47.201Z,20.8
2017-05-15T12:33:55.313Z,20.8
2017-05-15T12:35:03.373Z,20.9
2017-05-15T12:36:11.463Z,20.8
2017-05-15T12:37:19.546Z,20.8
2017-05-15T12:38:27.632Z,20.8
2017-05-15T12:39:35.720Z,20.8
2017-05-15T12:40:43.807Z,20.8
2017-05-15T12:41:51.893Z,20.8
2017-05-15T12:42:59.990Z,20.9
2017-05-15T12:44:08.066Z,20.8
2017-05-15T12:45:16.153Z,20.9
2017-05-15T12:46:24.239Z,20.8
2017-05-15T12:47:32.325Z,20.9
2017-05-15T12:48:40.412Z,20.9
2017-05-15T12:49:48.501Z,20.9
2017-05-15T12:50:56.609Z,20.9
2017-05-15T12:52:04.672Z,20.9
2017-05-15T12:53:12.759Z,20.9
2017-05-15T12:54:20.853Z,20.9
2017-05-15T12:55:28.932Z,20.9
2017-05-15T12:56:37.019Z,21.0
2017-05-15T12:57:45.103Z,20.9
2017-05-15T12:58:53.190Z,20.9
2017-05-15T13:00:01.308Z,20.9
2017-05-15T13:01:09.363Z,20.9
2017-05-15T13:02:17.450Z,21.0
2017-05-15T13:03:25.536Z,20.9
2017-05-15T13:04:33.625Z,20.9
2017-05-15T13:05:41.714Z,21.0
2017-05-15T13:06:49.798Z,20.9
2017-05-15T13:07:57.881Z,20.9
2017-05-15T13:09:05.969Z,20.9
2017-05-15T13:10:14.058Z,20.9
2017-05-15T13:11:22.147Z,20.9
2017-05-15T13:12:30.231Z,20.9
2017-05-15T13:13:38.316Z,20.9
2017-05-15T13:14:46.402Z,21.0
2017-05-15T13:15:54.491Z,21.0
2017-05-15T13:17:02.583Z,21.0
2017-05-15T13:18:10.666Z,20.9
2017-05-15T13:19:18.764Z,21.0
2017-05-15T13:20:26.840Z,20.9
2017-05-15T13:21:34.934Z,21.1
2017-05-15T13:22:43.015Z,21.0
2017-05-15T13:23:51.099Z,21.1
2017-05-15T13:24:59.192Z,21.0
2017-05-15T13:26:07.273Z,21.1
2017-05-15T13:27:15.361Z,21.0
2017-05-15T13:28:23.462Z,21.0
2017-05-15T13:29:31.534Z,21.0
2017-05-15T13:30:39.930Z,21.0
2017-05-15T13:31:47.710Z,21.0
2017-05-15T13:32:55.794Z,21.0
2017-05-15T13:34:03.926Z,21.0
2017-05-15T13:35:11.966Z,21.0
2017-05-15T13:36:20.052Z,21.0
2017-05-15T13:37:28.138Z,21.0
2017-05-15T13:38:36.226Z,21.0
2017-05-15T13:39:44.314Z,21.0
2017-05-15T13:40:52.398Z,21.0
2017-05-15T13:42:00.515Z,21.0
2017-05-15T13:43:08.573Z,21.0
2017-05-15T13:44:16.661Z,21.0
2017-05-15T13:45:24.742Z,21.0
2017-05-15T13:46:32.830Z,21.0
2017-05-15T13:47:40.920Z,21.1
2017-05-15T13:48:49.006Z,21.1
2017-05-15T13:49:57.092Z,21.0
2017-05-15T13:51:05.180Z,21.0
2017-05-15T13:52:13.274Z,21.1
2017-05-15T13:53:21.352Z,21.1
2017-05-15T13:54:29.437Z,21.1
2017-05-15T13:55:37.524Z,21.0
2017-05-15T13:56:45.614Z,21.1
2017-05-15T13:57:53.705Z,21.1
2017-05-15T13:59:01.785Z,21.1
2017-05-15T14:00:09.871Z,21.0
2017-05-15T14:01:17.961Z,21.0
2017-05-15T14:02:26.045Z,21.1
2017-05-15T14:03:34.132Z,21.0
2017-05-15T14:04:42.218Z,21.1
2017-05-15T14:05:50.305Z,21.1
2017-05-15T14:06:58.392Z,21.1
2017-05-15T14:08:06.480Z,21.1
2017-05-15T14:09:14.565Z,21.2
2017-05-15T14:10:22.653Z,21.1
2017-05-15T14:11:30.740Z,21.1
2017-05-15T14:12:38.827Z,21.1
2017-05-15T14:13:46.914Z,21.2
2017-05-15T14:14:54.997Z,21.2
2017-05-15T14:16:03.087Z,21.2
2017-05-15T14:17:11.175Z,21.2
2017-05-15T14:18:19.261Z,21.2
2017-05-15T14:19:27.355Z,21.2
2017-05-15T14:20:35.436Z,21.2
2017-05-15T14:21:43.523Z,21.2
2017-05-15T14:22:51.611Z,21.2
2017-05-15T14:23:59.695Z,21.2
2017-05-15T14:25:07.779Z,21.2
2017-05-15T14:26:15.869Z,21.2
2017-05-15T14:27:23.956Z,21.2
2017-05-15T14:28:32.045Z,21.1
2017-05-15T14:29:40.128Z,21.1
2017-05-15T14:30:48.216Z,21.2
2017-05-15T14:31:56.301Z,21.1
2017-05-15T14:33:04.388Z,21.2
2017-05-15T14:34:12.475Z,21.2
2017-05-15T14:35:20.563Z,21.2
2017-05-15T14:36:28.650Z,21.3
2017-05-15T14:37:36.735Z,21.2
2017-05-15T14:38:44.820Z,21.1
2017-05-15T14:39:52.936Z,21.2
2017-05-15T14:41:00.997Z,21.2
2017-05-15T14:42:09.081Z,21.1
2017-05-15T14:43:17.168Z,21.1
2017-05-15T14:44:25.259Z,21.2
2017-05-15T14:45:33.340Z,21.2
2017-05-15T14:46:41.431Z,21.2
2017-05-15T14:47:49.514Z,21.3
2017-05-15T14:48:57.601Z,21.2
2017-05-15T14:50:05.698Z,21.2
2017-05-15T14:51:13.780Z,21.2
2017-05-15T14:52:21.860Z,21.1
2017-05-15T14:53:29.946Z,21.2
2017-05-15T14:54:38.032Z,21.1
2017-05-15T14:55:46.119Z,21.3
2017-05-15T14:56:54.206Z,21.2
2017-05-15T14:58:02.293Z,21.2
2017-05-15T14:59:10.379Z,21.2
2017-05-15T15:00:18.467Z,21.2
2017-05-15T15:01:26.557Z,21.2
2017-05-15T15:02:34.672Z,21.2
2017-05-15T15:03:42.727Z,21.2
2017-05-15T15:04:50.813Z,21.2
2017-05-15T15:05:58.897Z,21.2
2017-05-15T15:07:07.005Z,21.2
2017-05-15T15:08:15.073Z,21.3
2017-05-15T15:09:23.164Z,21.2